sensor_id;sensor_type;location;lat;lon;timestamp;noise_LAeq;noise_LA_min;noise_LA_max;noise_LA01;noise_LA95
72415;Laerm;60995;52.154;4.498;2023-02-12T00:02:05;43.35;37.13;59.58;;
72415;Laerm;60995;52.154;4.498;2023-02-12T00:04:21;42.48;37.17;61.41;;
72415;Laerm;60995;52.154;4.498;2023-02-12T00:06:38;43.43;37.32;61.05;;
72415;Laerm;60995;52.154;4.498;2023-02-12T00:08:55;42.45;37.02;60.67;;
72415;Laerm;60995;52.154;4.498;2023-02-12T00:11:17;43.87;37.40;61.47;;
72415;Laerm;60995;52.154;4.498;2023-02-12T00:13:33;44.80;37.23;59.54;;
72415;Laerm;60995;52.154;4.498;2023-02-12T00:15:49;43.57;37.25;60.93;;
72415;Laerm;60995;52.154;4.498;2023-02-12T00:18:06;43.26;37.32;58.44;;
72415;Laerm;60995;52.154;4.498;2023-02-12T00:20:22;45.03;37.33;56.31;;
72415;Laerm;60995;52.154;4.498;2023-02-12T00:22:38;44.24;37.61;56.84;;
72415;Laerm;60995;52.154;4.498;2023-02-12T00:24:55;45.05;36.83;61.53;;
72415;Laerm;60995;52.154;4.498;2023-02-12T00:27:11;43.94;36.66;60.79;;
72415;Laerm;60995;52.154;4.498;2023-02-12T00:29:27;43.53;36.97;66.46;;
72415;Laerm;60995;52.154;4.498;2023-02-12T00:31:43;44.03;37.19;68.91;;
72415;Laerm;60995;52.154;4.498;2023-02-12T00:33:59;48.01;37.00;69.99;;
72415;Laerm;60995;52.154;4.498;2023-02-12T00:36:18;46.40;37.15;60.95;;
72415;Laerm;60995;52.154;4.498;2023-02-12T00:38:34;42.89;36.64;61.11;;
72415;Laerm;60995;52.154;4.498;2023-02-12T00:40:51;43.58;37.24;52.62;;
72415;Laerm;60995;52.154;4.498;2023-02-12T00:43:07;43.70;37.11;58.57;;
72415;Laerm;60995;52.154;4.498;2023-02-12T00:45:23;46.27;37.11;64.35;;
72415;Laerm;60995;52.154;4.498;2023-02-12T00:47:39;43.96;37.42;60.53;;
72415;Laerm;60995;52.154;4.498;2023-02-12T00:49:55;43.37;37.11;60.70;;
72415;Laerm;60995;52.154;4.498;2023-02-12T00:52:11;43.29;36.85;60.47;;
72415;Laerm;60995;52.154;4.498;2023-02-12T00:54:28;48.39;37.13;68.28;;
72415;Laerm;60995;52.154;4.498;2023-02-12T00:56:44;44.78;37.23;60.52;;
72415;Laerm;60995;52.154;4.498;2023-02-12T00:59:00;44.36;36.80;60.95;;
72415;Laerm;60995;52.154;4.498;2023-02-12T01:01:17;43.15;37.14;59.41;;
72415;Laerm;60995;52.154;4.498;2023-02-12T01:03:33;47.38;36.67;59.17;;
72415;Laerm;60995;52.154;4.498;2023-02-12T01:05:49;42.39;37.00;61.38;;
72415;Laerm;60995;52.154;4.498;2023-02-12T01:08:05;44.40;37.04;60.93;;
72415;Laerm;60995;52.154;4.498;2023-02-12T01:10:21;45.37;37.22;58.41;;
72415;Laerm;60995;52.154;4.498;2023-02-12T01:12:37;41.68;36.70;53.88;;
72415;Laerm;60995;52.154;4.498;2023-02-12T01:14:54;43.77;37.06;53.31;;
72415;Laerm;60995;52.154;4.498;2023-02-12T01:17:10;42.96;36.81;60.83;;
72415;Laerm;60995;52.154;4.498;2023-02-12T01:19:26;42.31;37.01;61.98;;
72415;Laerm;60995;52.154;4.498;2023-02-12T01:21:42;44.59;36.98;60.94;;
72415;Laerm;60995;52.154;4.498;2023-02-12T01:23:59;46.84;37.00;63.39;;
72415;Laerm;60995;52.154;4.498;2023-02-12T01:26:16;43.59;36.87;61.31;;
72415;Laerm;60995;52.154;4.498;2023-02-12T01:28:33;42.81;37.28;61.52;;
72415;Laerm;60995;52.154;4.498;2023-02-12T01:30:49;43.04;36.83;60.89;;
72415;Laerm;60995;52.154;4.498;2023-02-12T01:33:05;42.79;37.02;60.54;;
72415;Laerm;60995;52.154;4.498;2023-02-12T01:35:21;42.79;36.81;61.04;;
72415;Laerm;60995;52.154;4.498;2023-02-12T01:37:37;43.39;36.72;51.56;;
72415;Laerm;60995;52.154;4.498;2023-02-12T01:39:53;44.04;36.68;54.66;;
72415;Laerm;60995;52.154;4.498;2023-02-12T01:42:12;41.85;36.98;60.89;;
72415;Laerm;60995;52.154;4.498;2023-02-12T01:44:30;41.90;36.42;61.77;;
72415;Laerm;60995;52.154;4.498;2023-02-12T01:47:04;42.18;36.87;60.96;;
72415;Laerm;60995;52.154;4.498;2023-02-12T01:49:23;42.37;36.36;54.61;;
72415;Laerm;60995;52.154;4.498;2023-02-12T01:51:42;44.50;36.65;57.45;;
72415;Laerm;60995;52.154;4.498;2023-02-12T01:54:02;41.20;36.90;50.47;;
72415;Laerm;60995;52.154;4.498;2023-02-12T01:56:20;41.85;36.79;60.27;;
72415;Laerm;60995;52.154;4.498;2023-02-12T01:58:41;43.00;37.36;63.45;;
72415;Laerm;60995;52.154;4.498;2023-02-12T02:00:59;44.66;37.42;60.75;;
72415;Laerm;60995;52.154;4.498;2023-02-12T02:03:16;44.90;36.77;61.43;;
72415;Laerm;60995;52.154;4.498;2023-02-12T02:05:41;42.08;37.11;58.54;;
72415;Laerm;60995;52.154;4.498;2023-02-12T02:07:58;42.94;36.79;59.63;;
72415;Laerm;60995;52.154;4.498;2023-02-12T02:10:15;48.20;36.58;63.64;;
72415;Laerm;60995;52.154;4.498;2023-02-12T02:12:31;41.98;37.59;61.24;;
72415;Laerm;60995;52.154;4.498;2023-02-12T02:15:06;43.20;37.51;64.33;;
72415;Laerm;60995;52.154;4.498;2023-02-12T02:23:06;43.04;36.85;59.47;;
72415;Laerm;60995;52.154;4.498;2023-02-12T02:30:29;44.73;37.04;60.92;;
72415;Laerm;60995;52.154;4.498;2023-02-12T02:37:48;45.48;37.06;63.56;;
72415;Laerm;60995;52.154;4.498;2023-02-12T02:40:21;43.58;36.21;59.25;;
72415;Laerm;60995;52.154;4.498;2023-02-12T02:42:48;40.11;36.69;48.34;;
72415;Laerm;60995;52.154;4.498;2023-02-12T02:47:33;44.72;37.25;56.91;;
72415;Laerm;60995;52.154;4.498;2023-02-12T02:49:56;40.92;36.97;51.19;;
72415;Laerm;60995;52.154;4.498;2023-02-12T02:52:18;45.40;36.63;57.61;;
72415;Laerm;60995;52.154;4.498;2023-02-12T02:54:40;39.83;36.47;48.64;;
72415;Laerm;60995;52.154;4.498;2023-02-12T02:57:23;43.34;36.65;55.60;;
72415;Laerm;60995;52.154;4.498;2023-02-12T02:59:45;41.87;37.03;51.14;;
72415;Laerm;60995;52.154;4.498;2023-02-12T03:02:11;41.32;36.83;55.71;;
72415;Laerm;60995;52.154;4.498;2023-02-12T03:04:34;40.57;36.95;50.54;;
72415;Laerm;60995;52.154;4.498;2023-02-12T03:06:59;41.20;36.75;53.74;;
72415;Laerm;60995;52.154;4.498;2023-02-12T03:09:34;43.84;36.98;55.86;;
72415;Laerm;60995;52.154;4.498;2023-02-12T03:11:57;42.51;36.78;54.36;;
72415;Laerm;60995;52.154;4.498;2023-02-12T03:14:37;41.83;36.82;53.10;;
72415;Laerm;60995;52.154;4.498;2023-02-12T03:19:49;42.12;36.46;52.95;;
72415;Laerm;60995;52.154;4.498;2023-02-12T03:22:17;40.87;36.65;52.27;;
72415;Laerm;60995;52.154;4.498;2023-02-12T03:24:43;39.78;36.87;43.96;;
72415;Laerm;60995;52.154;4.498;2023-02-12T03:27:24;43.35;37.10;55.90;;
72415;Laerm;60995;52.154;4.498;2023-02-12T03:29:43;42.44;36.89;56.67;;
72415;Laerm;60995;52.154;4.498;2023-02-12T03:34:26;39.92;35.86;45.98;;
72415;Laerm;60995;52.154;4.498;2023-02-12T03:37:04;41.57;36.42;55.65;;
72415;Laerm;60995;52.154;4.498;2023-02-12T03:40:07;40.13;36.87;44.62;;
72415;Laerm;60995;52.154;4.498;2023-02-12T03:50:32;42.29;37.55;51.62;;
72415;Laerm;60995;52.154;4.498;2023-02-12T03:52:51;42.53;37.38;56.61;;
72415;Laerm;60995;52.154;4.498;2023-02-12T03:55:08;42.66;36.91;54.51;;
72415;Laerm;60995;52.154;4.498;2023-02-12T03:57:28;42.56;37.07;61.22;;
72415;Laerm;60995;52.154;4.498;2023-02-12T03:59:47;41.86;37.25;52.24;;
72415;Laerm;60995;52.154;4.498;2023-02-12T04:02:05;42.54;37.54;51.41;;
72415;Laerm;60995;52.154;4.498;2023-02-12T04:04:22;42.47;37.51;51.51;;
72415;Laerm;60995;52.154;4.498;2023-02-12T04:06:40;44.95;38.01;58.95;;
72415;Laerm;60995;52.154;4.498;2023-02-12T04:09:00;42.75;37.66;54.83;;
72415;Laerm;60995;52.154;4.498;2023-02-12T04:14:11;44.75;36.79;55.80;;
72415;Laerm;60995;52.154;4.498;2023-02-12T04:19:27;41.49;37.00;49.42;;
72415;Laerm;60995;52.154;4.498;2023-02-12T04:27:51;42.78;37.97;54.14;;
72415;Laerm;60995;52.154;4.498;2023-02-12T04:30:20;41.05;36.64;50.38;;
72415;Laerm;60995;52.154;4.498;2023-02-12T04:32:51;40.09;37.12;45.01;;
72415;Laerm;60995;52.154;4.498;2023-02-12T04:35:25;40.76;36.73;48.38;;
72415;Laerm;60995;52.154;4.498;2023-02-12T04:37:54;39.85;36.80;44.96;;
72415;Laerm;60995;52.154;4.498;2023-02-12T04:40:17;41.24;36.90;50.42;;
72415;Laerm;60995;52.154;4.498;2023-02-12T04:42:44;40.51;36.85;55.35;;
72415;Laerm;60995;52.154;4.498;2023-02-12T04:45:01;40.13;36.82;44.77;;
72415;Laerm;60995;52.154;4.498;2023-02-12T04:47:17;43.00;36.60;54.88;;
72415;Laerm;60995;52.154;4.498;2023-02-12T04:49:33;42.60;37.21;53.12;;
72415;Laerm;60995;52.154;4.498;2023-02-12T04:51:49;40.78;36.95;50.20;;
72415;Laerm;60995;52.154;4.498;2023-02-12T04:54:05;41.30;36.99;51.63;;
72415;Laerm;60995;52.154;4.498;2023-02-12T04:56:21;41.11;36.99;52.47;;
72415;Laerm;60995;52.154;4.498;2023-02-12T04:58:39;39.99;37.09;45.31;;
72415;Laerm;60995;52.154;4.498;2023-02-12T05:00:58;41.25;36.81;52.62;;
72415;Laerm;60995;52.154;4.498;2023-02-12T05:03:14;41.87;36.94;56.64;;
72415;Laerm;60995;52.154;4.498;2023-02-12T05:05:30;42.03;36.52;53.85;;
72415;Laerm;60995;52.154;4.498;2023-02-12T05:07:46;40.21;36.63;49.32;;
72415;Laerm;60995;52.154;4.498;2023-02-12T05:10:03;42.82;36.76;61.86;;
72415;Laerm;60995;52.154;4.498;2023-02-12T05:12:19;39.97;36.68;56.35;;
72415;Laerm;60995;52.154;4.498;2023-02-12T05:14:35;40.04;36.80;46.99;;
72415;Laerm;60995;52.154;4.498;2023-02-12T05:16:51;42.15;36.02;52.81;;
72415;Laerm;60995;52.154;4.498;2023-02-12T05:19:07;42.11;36.50;57.86;;
72415;Laerm;60995;52.154;4.498;2023-02-12T05:21:24;43.17;36.87;57.69;;
72415;Laerm;60995;52.154;4.498;2023-02-12T05:23:41;43.03;37.47;59.63;;
72415;Laerm;60995;52.154;4.498;2023-02-12T05:25:58;43.13;37.21;52.03;;
72415;Laerm;60995;52.154;4.498;2023-02-12T05:28:14;42.78;37.21;54.17;;
72415;Laerm;60995;52.154;4.498;2023-02-12T05:30:30;43.01;37.08;55.09;;
72415;Laerm;60995;52.154;4.498;2023-02-12T05:32:46;41.71;37.30;55.45;;
72415;Laerm;60995;52.154;4.498;2023-02-12T05:35:02;41.71;36.43;50.45;;
72415;Laerm;60995;52.154;4.498;2023-02-12T05:37:19;41.52;36.66;54.82;;
72415;Laerm;60995;52.154;4.498;2023-02-12T05:39:35;40.28;36.28;46.93;;
72415;Laerm;60995;52.154;4.498;2023-02-12T05:41:51;42.49;37.07;53.68;;
72415;Laerm;60995;52.154;4.498;2023-02-12T05:44:07;43.02;37.08;52.40;;
72415;Laerm;60995;52.154;4.498;2023-02-12T05:46:23;43.04;37.39;54.43;;
72415;Laerm;60995;52.154;4.498;2023-02-12T05:48:39;43.32;36.93;53.58;;
72415;Laerm;60995;52.154;4.498;2023-02-12T05:51:09;42.27;36.53;55.65;;
72415;Laerm;60995;52.154;4.498;2023-02-12T05:53:26;42.83;36.88;54.29;;
72415;Laerm;60995;52.154;4.498;2023-02-12T05:55:42;40.17;36.65;48.24;;
72415;Laerm;60995;52.154;4.498;2023-02-12T05:57:58;43.80;37.29;52.83;;
72415;Laerm;60995;52.154;4.498;2023-02-12T06:00:14;42.29;37.10;52.71;;
72415;Laerm;60995;52.154;4.498;2023-02-12T06:02:35;41.32;37.11;51.73;;
72415;Laerm;60995;52.154;4.498;2023-02-12T06:04:51;40.31;37.11;48.32;;
72415;Laerm;60995;52.154;4.498;2023-02-12T06:07:07;42.34;36.94;53.03;;
72415;Laerm;60995;52.154;4.498;2023-02-12T06:09:23;44.58;36.62;56.98;;
72415;Laerm;60995;52.154;4.498;2023-02-12T06:11:40;40.05;36.99;47.12;;
72415;Laerm;60995;52.154;4.498;2023-02-12T06:13:57;42.77;36.92;54.21;;
72415;Laerm;60995;52.154;4.498;2023-02-12T06:16:24;42.81;37.29;53.80;;
72415;Laerm;60995;52.154;4.498;2023-02-12T06:18:41;41.75;36.74;62.50;;
72415;Laerm;60995;52.154;4.498;2023-02-12T06:20:57;41.43;36.93;51.71;;
72415;Laerm;60995;52.154;4.498;2023-02-12T06:23:13;42.23;37.07;57.74;;
72415;Laerm;60995;52.154;4.498;2023-02-12T06:25:29;42.74;36.66;57.03;;
72415;Laerm;60995;52.154;4.498;2023-02-12T06:27:45;40.83;36.91;49.79;;
72415;Laerm;60995;52.154;4.498;2023-02-12T06:30:01;41.65;36.88;51.17;;
72415;Laerm;60995;52.154;4.498;2023-02-12T06:32:17;44.34;37.46;53.03;;
72415;Laerm;60995;52.154;4.498;2023-02-12T06:34:33;40.65;37.22;49.45;;
72415;Laerm;60995;52.154;4.498;2023-02-12T06:36:49;41.24;36.67;50.77;;
72415;Laerm;60995;52.154;4.498;2023-02-12T06:39:06;41.73;36.95;61.85;;
72415;Laerm;60995;52.154;4.498;2023-02-12T06:41:22;41.62;37.19;51.55;;
72415;Laerm;60995;52.154;4.498;2023-02-12T06:43:39;42.34;37.10;52.47;;
72415;Laerm;60995;52.154;4.498;2023-02-12T06:45:55;43.80;36.96;59.88;;
72415;Laerm;60995;52.154;4.498;2023-02-12T06:48:11;43.03;37.19;61.15;;
72415;Laerm;60995;52.154;4.498;2023-02-12T06:50:29;44.88;36.91;58.02;;
72415;Laerm;60995;52.154;4.498;2023-02-12T06:52:45;49.50;37.32;63.38;;
72415;Laerm;60995;52.154;4.498;2023-02-12T06:55:01;42.52;36.66;54.31;;
72415;Laerm;60995;52.154;4.498;2023-02-12T06:57:17;46.65;36.79;62.76;;
72415;Laerm;60995;52.154;4.498;2023-02-12T06:59:33;49.77;37.56;77.25;;
72415;Laerm;60995;52.154;4.498;2023-02-12T07:01:49;47.22;37.67;62.77;;
72415;Laerm;60995;52.154;4.498;2023-02-12T07:04:05;49.37;38.67;66.96;;
72415;Laerm;60995;52.154;4.498;2023-02-12T07:06:22;47.15;40.38;61.93;;
72415;Laerm;60995;52.154;4.498;2023-02-12T07:08:39;44.96;39.83;53.52;;
72415;Laerm;60995;52.154;4.498;2023-02-12T07:10:55;47.55;39.25;62.94;;
72415;Laerm;60995;52.154;4.498;2023-02-12T07:13:11;47.21;39.18;61.20;;
72415;Laerm;60995;52.154;4.498;2023-02-12T07:15:27;45.69;37.98;62.78;;
72415;Laerm;60995;52.154;4.498;2023-02-12T07:17:43;44.99;37.79;56.95;;
72415;Laerm;60995;52.154;4.498;2023-02-12T07:19:59;46.62;38.47;63.40;;
72415;Laerm;60995;52.154;4.498;2023-02-12T07:22:15;43.66;37.14;63.06;;
72415;Laerm;60995;52.154;4.498;2023-02-12T07:24:31;46.85;37.47;60.30;;
72415;Laerm;60995;52.154;4.498;2023-02-12T07:26:47;42.38;37.36;52.71;;
72415;Laerm;60995;52.154;4.498;2023-02-12T07:29:04;44.82;37.99;53.74;;
72415;Laerm;60995;52.154;4.498;2023-02-12T07:31:21;41.16;36.93;52.02;;
72415;Laerm;60995;52.154;4.498;2023-02-12T07:33:38;43.22;37.50;59.66;;
72415;Laerm;60995;52.154;4.498;2023-02-12T07:35:54;48.17;37.74;60.44;;
72415;Laerm;60995;52.154;4.498;2023-02-12T07:38:11;45.55;36.80;55.60;;
72415;Laerm;60995;52.154;4.498;2023-02-12T07:40:27;44.38;38.16;56.66;;
72415;Laerm;60995;52.154;4.498;2023-02-12T07:42:43;46.13;36.87;56.62;;
72415;Laerm;60995;52.154;4.498;2023-02-12T07:44:59;44.58;37.17;56.92;;
72415;Laerm;60995;52.154;4.498;2023-02-12T07:47:15;44.69;37.41;55.21;;
72415;Laerm;60995;52.154;4.498;2023-02-12T07:49:31;43.29;37.70;58.99;;
72415;Laerm;60995;52.154;4.498;2023-02-12T07:51:48;48.16;38.59;66.39;;
72415;Laerm;60995;52.154;4.498;2023-02-12T07:54:04;44.86;37.64;53.92;;
72415;Laerm;60995;52.154;4.498;2023-02-12T07:56:23;44.55;38.58;52.89;;
72415;Laerm;60995;52.154;4.498;2023-02-12T07:58:41;46.40;38.17;55.29;;
72415;Laerm;60995;52.154;4.498;2023-02-12T08:00:57;47.35;38.46;58.41;;
72415;Laerm;60995;52.154;4.498;2023-02-12T08:03:13;59.03;36.98;83.57;;
72415;Laerm;60995;52.154;4.498;2023-02-12T08:05:29;44.53;37.82;56.54;;
72415;Laerm;60995;52.154;4.498;2023-02-12T08:07:45;45.39;38.46;55.51;;
72415;Laerm;60995;52.154;4.498;2023-02-12T08:10:02;48.84;40.37;58.08;;
72415;Laerm;60995;52.154;4.498;2023-02-12T08:12:18;46.45;39.24;61.92;;
72415;Laerm;60995;52.154;4.498;2023-02-12T08:14:34;47.84;38.62;66.75;;
72415;Laerm;60995;52.154;4.498;2023-02-12T08:16:50;46.46;39.12;54.70;;
72415;Laerm;60995;52.154;4.498;2023-02-12T08:19:07;44.59;38.24;58.82;;
72415;Laerm;60995;52.154;4.498;2023-02-12T08:21:26;46.34;38.65;63.11;;
72415;Laerm;60995;52.154;4.498;2023-02-12T08:23:42;47.29;39.95;61.65;;
72415;Laerm;60995;52.154;4.498;2023-02-12T08:26:13;45.37;38.17;54.94;;
72415;Laerm;60995;52.154;4.498;2023-02-12T08:28:30;43.88;37.80;53.41;;
72415;Laerm;60995;52.154;4.498;2023-02-12T08:30:46;46.03;38.66;56.70;;
72415;Laerm;60995;52.154;4.498;2023-02-12T08:33:02;47.46;39.98;57.70;;
72415;Laerm;60995;52.154;4.498;2023-02-12T08:35:18;48.46;40.47;62.06;;
72415;Laerm;60995;52.154;4.498;2023-02-12T08:37:34;48.37;40.32;68.66;;
72415;Laerm;60995;52.154;4.498;2023-02-12T08:39:50;47.38;40.73;55.23;;
72415;Laerm;60995;52.154;4.498;2023-02-12T08:42:06;48.24;39.42;66.01;;
72415;Laerm;60995;52.154;4.498;2023-02-12T08:44:22;49.81;42.23;59.24;;
72415;Laerm;60995;52.154;4.498;2023-02-12T08:46:42;48.15;37.53;58.83;;
72415;Laerm;60995;52.154;4.498;2023-02-12T08:49:05;46.87;39.95;58.25;;
72415;Laerm;60995;52.154;4.498;2023-02-12T08:51:27;51.12;44.23;58.00;;
72415;Laerm;60995;52.154;4.498;2023-02-12T08:53:45;52.00;41.36;66.58;;
72415;Laerm;60995;52.154;4.498;2023-02-12T08:56:02;49.53;39.38;66.95;;
72415;Laerm;60995;52.154;4.498;2023-02-12T08:58:18;46.93;39.23;55.50;;
72415;Laerm;60995;52.154;4.498;2023-02-12T09:00:34;50.78;43.84;64.52;;
72415;Laerm;60995;52.154;4.498;2023-02-12T09:02:51;51.01;45.78;64.46;;
72415;Laerm;60995;52.154;4.498;2023-02-12T09:05:07;47.52;37.37;66.18;;
72415;Laerm;60995;52.154;4.498;2023-02-12T09:07:23;45.88;37.96;54.15;;
72415;Laerm;60995;52.154;4.498;2023-02-12T09:09:39;49.42;37.67;60.72;;
72415;Laerm;60995;52.154;4.498;2023-02-12T09:11:55;50.22;45.45;59.08;;
72415;Laerm;60995;52.154;4.498;2023-02-12T09:14:14;48.16;39.49;54.88;;
72415;Laerm;60995;52.154;4.498;2023-02-12T09:16:32;47.51;38.49;57.02;;
72415;Laerm;60995;52.154;4.498;2023-02-12T09:18:49;47.68;38.75;57.28;;
72415;Laerm;60995;52.154;4.498;2023-02-12T09:21:11;50.43;43.01;56.71;;
72415;Laerm;60995;52.154;4.498;2023-02-12T09:23:27;49.57;42.62;54.82;;
72415;Laerm;60995;52.154;4.498;2023-02-12T09:25:44;45.86;38.17;60.22;;
72415;Laerm;60995;52.154;4.498;2023-02-12T09:28:01;49.92;37.62;68.50;;
72415;Laerm;60995;52.154;4.498;2023-02-12T09:30:17;48.56;37.97;60.74;;
72415;Laerm;60995;52.154;4.498;2023-02-12T09:32:33;54.16;45.84;74.12;;
72415;Laerm;60995;52.154;4.498;2023-02-12T09:34:50;48.84;38.45;64.73;;
72415;Laerm;60995;52.154;4.498;2023-02-12T09:37:06;47.54;38.97;57.39;;
72415;Laerm;60995;52.154;4.498;2023-02-12T09:39:22;49.49;38.67;67.45;;
72415;Laerm;60995;52.154;4.498;2023-02-12T09:44:21;48.86;38.37;60.59;;
72415;Laerm;60995;52.154;4.498;2023-02-12T09:46:56;47.65;38.24;62.84;;
72415;Laerm;60995;52.154;4.498;2023-02-12T09:51:50;48.86;42.36;59.72;;
72415;Laerm;60995;52.154;4.498;2023-02-12T09:54:14;47.97;41.32;56.61;;
72415;Laerm;60995;52.154;4.498;2023-02-12T09:56:33;48.09;39.28;58.41;;
72415;Laerm;60995;52.154;4.498;2023-02-12T09:58:58;48.02;38.58;69.41;;
72415;Laerm;60995;52.154;4.498;2023-02-12T10:01:19;48.41;39.35;71.71;;
72415;Laerm;60995;52.154;4.498;2023-02-12T10:03:36;47.72;37.89;57.12;;
72415;Laerm;60995;52.154;4.498;2023-02-12T10:05:58;51.22;39.44;65.71;;
72415;Laerm;60995;52.154;4.498;2023-02-12T10:08:35;47.06;38.35;57.09;;
72415;Laerm;60995;52.154;4.498;2023-02-12T10:26:48;49.82;40.72;61.41;;
72415;Laerm;60995;52.154;4.498;2023-02-12T10:29:16;48.47;40.12;59.96;;
72415;Laerm;60995;52.154;4.498;2023-02-12T10:31:37;52.61;40.01;67.49;;
72415;Laerm;60995;52.154;4.498;2023-02-12T10:33:55;49.17;39.68;62.36;;
72415;Laerm;60995;52.154;4.498;2023-02-12T10:36:31;49.55;40.19;61.89;;
72415;Laerm;60995;52.154;4.498;2023-02-12T10:39:00;49.46;39.76;60.51;;
72415;Laerm;60995;52.154;4.498;2023-02-12T10:41:17;50.25;40.83;64.85;;
72415;Laerm;60995;52.154;4.498;2023-02-12T10:43:33;50.26;40.55;62.19;;
72415;Laerm;60995;52.154;4.498;2023-02-12T10:45:49;49.11;39.29;61.55;;
72415;Laerm;60995;52.154;4.498;2023-02-12T10:48:10;49.79;41.62;61.28;;
72415;Laerm;60995;52.154;4.498;2023-02-12T10:51:19;50.87;40.62;60.76;;
72415;Laerm;60995;52.154;4.498;2023-02-12T10:53:17;50.40;43.43;61.75;;
72415;Laerm;60995;52.154;4.498;2023-02-12T10:55:35;50.06;42.07;62.68;;
72415;Laerm;60995;52.154;4.498;2023-02-12T10:57:55;49.29;41.21;61.60;;
72415;Laerm;60995;52.154;4.498;2023-02-12T11:00:29;48.98;41.58;64.30;;
72415;Laerm;60995;52.154;4.498;2023-02-12T11:05:24;49.60;41.97;60.93;;
72415;Laerm;60995;52.154;4.498;2023-02-12T11:07:49;48.47;40.49;60.31;;
72415;Laerm;60995;52.154;4.498;2023-02-12T11:10:19;48.35;39.22;61.78;;
72415;Laerm;60995;52.154;4.498;2023-02-12T11:12:41;49.02;41.14;61.78;;
72415;Laerm;60995;52.154;4.498;2023-02-12T11:15:18;49.34;40.77;61.39;;
72415;Laerm;60995;52.154;4.498;2023-02-12T11:17:37;47.97;38.94;60.53;;
72415;Laerm;60995;52.154;4.498;2023-02-12T11:20:52;49.49;40.04;60.99;;
72415;Laerm;60995;52.154;4.498;2023-02-12T11:22:57;48.68;38.21;60.98;;
72415;Laerm;60995;52.154;4.498;2023-02-12T11:25:15;47.41;39.86;58.69;;
72415;Laerm;60995;52.154;4.498;2023-02-12T11:27:31;48.29;39.14;58.25;;
72415;Laerm;60995;52.154;4.498;2023-02-12T11:30:11;47.18;38.84;55.97;;
72415;Laerm;60995;52.154;4.498;2023-02-12T11:32:28;47.26;37.78;61.76;;
72415;Laerm;60995;52.154;4.498;2023-02-12T11:35:04;49.36;39.00;77.91;;
72415;Laerm;60995;52.154;4.498;2023-02-12T11:37:20;47.75;38.10;57.37;;
72415;Laerm;60995;52.154;4.498;2023-02-12T11:39:38;49.12;38.62;61.54;;
72415;Laerm;60995;52.154;4.498;2023-02-12T11:42:04;48.08;41.03;61.05;;
72415;Laerm;60995;52.154;4.498;2023-02-12T11:44:42;52.39;38.57;70.70;;
72415;Laerm;60995;52.154;4.498;2023-02-12T11:47:01;47.60;39.65;61.77;;
72415;Laerm;60995;52.154;4.498;2023-02-12T11:49:28;49.77;38.90;71.34;;
72415;Laerm;60995;52.154;4.498;2023-02-12T11:51:46;49.37;39.28;62.11;;
72415;Laerm;60995;52.154;4.498;2023-02-12T11:54:04;47.71;41.23;60.30;;
72415;Laerm;60995;52.154;4.498;2023-02-12T11:56:21;48.59;37.55;62.46;;
72415;Laerm;60995;52.154;4.498;2023-02-12T11:58:38;49.86;40.45;61.71;;
72415;Laerm;60995;52.154;4.498;2023-02-12T12:01:13;53.50;41.64;73.73;;
72415;Laerm;60995;52.154;4.498;2023-02-12T12:08:43;50.10;40.62;60.60;;
72415;Laerm;60995;52.154;4.498;2023-02-12T12:13:32;50.63;39.63;75.06;;
72415;Laerm;60995;52.154;4.498;2023-02-12T12:16:50;47.08;38.63;68.12;;
72415;Laerm;60995;52.154;4.498;2023-02-12T12:19:51;49.54;38.85;60.95;;
72415;Laerm;60995;52.154;4.498;2023-02-12T12:22:03;47.58;38.71;57.41;;
72415;Laerm;60995;52.154;4.498;2023-02-12T12:24:37;48.59;39.74;57.19;;
72415;Laerm;60995;52.154;4.498;2023-02-12T12:27:02;48.05;39.18;56.24;;
72415;Laerm;60995;52.154;4.498;2023-02-12T12:29:25;49.36;41.02;55.31;;
72415;Laerm;60995;52.154;4.498;2023-02-12T12:31:48;48.82;40.64;59.40;;
72415;Laerm;60995;52.154;4.498;2023-02-12T12:34:19;47.74;40.24;58.47;;
72415;Laerm;60995;52.154;4.498;2023-02-12T12:42:27;50.04;39.17;61.04;;
72415;Laerm;60995;52.154;4.498;2023-02-12T12:58:16;49.03;39.92;60.15;;
72415;Laerm;60995;52.154;4.498;2023-02-12T13:01:01;49.39;41.38;66.21;;
72415;Laerm;60995;52.154;4.498;2023-02-12T13:03:37;48.78;38.31;58.55;;
72415;Laerm;60995;52.154;4.498;2023-02-12T13:08:46;48.20;40.09;56.11;;
72415;Laerm;60995;52.154;4.498;2023-02-12T13:11:22;47.25;39.07;54.32;;
72415;Laerm;60995;52.154;4.498;2023-02-12T13:13:50;46.87;39.57;55.94;;
72415;Laerm;60995;52.154;4.498;2023-02-12T13:16:29;48.13;39.21;61.30;;
72415;Laerm;60995;52.154;4.498;2023-02-12T13:18:57;49.31;38.44;61.44;;
72415;Laerm;60995;52.154;4.498;2023-02-12T13:21:55;49.55;41.73;61.85;;
72415;Laerm;60995;52.154;4.498;2023-02-12T13:29:17;48.25;40.72;57.73;;
72415;Laerm;60995;52.154;4.498;2023-02-12T13:31:43;49.46;39.95;67.08;;
72415;Laerm;60995;52.154;4.498;2023-02-12T13:34:04;49.14;41.65;58.89;;
72415;Laerm;60995;52.154;4.498;2023-02-12T13:36:23;48.64;40.40;62.39;;
72415;Laerm;60995;52.154;4.498;2023-02-12T13:38:44;50.01;41.03;60.34;;
72415;Laerm;60995;52.154;4.498;2023-02-12T13:41:08;48.38;40.50;61.92;;
72415;Laerm;60995;52.154;4.498;2023-02-12T13:53:58;55.32;38.36;78.54;;
72415;Laerm;60995;52.154;4.498;2023-02-12T13:58:51;49.57;39.56;70.91;;
72415;Laerm;60995;52.154;4.498;2023-02-12T14:01:34;49.98;40.27;72.54;;
72415;Laerm;60995;52.154;4.498;2023-02-12T14:03:50;48.21;40.05;62.07;;
72415;Laerm;60995;52.154;4.498;2023-02-12T14:06:10;48.23;39.87;56.18;;
72415;Laerm;60995;52.154;4.498;2023-02-12T14:08:35;47.73;39.75;54.67;;
72415;Laerm;60995;52.154;4.498;2023-02-12T14:11:04;48.07;40.86;60.58;;
72415;Laerm;60995;52.154;4.498;2023-02-12T14:13:23;48.00;39.12;67.67;;
72415;Laerm;60995;52.154;4.498;2023-02-12T14:15:41;49.71;38.83;65.50;;
72415;Laerm;60995;52.154;4.498;2023-02-12T14:18:24;48.89;38.82;61.03;;
72415;Laerm;60995;52.154;4.498;2023-02-12T14:20:41;48.93;40.32;62.82;;
72415;Laerm;60995;52.154;4.498;2023-02-12T14:22:58;48.79;40.49;61.43;;
72415;Laerm;60995;52.154;4.498;2023-02-12T14:27:32;48.89;41.36;61.79;;
72415;Laerm;60995;52.154;4.498;2023-02-12T14:35:30;49.38;41.18;61.52;;
72415;Laerm;60995;52.154;4.498;2023-02-12T14:37:46;48.65;40.49;61.46;;
72415;Laerm;60995;52.154;4.498;2023-02-12T14:40:47;48.40;39.30;60.84;;
72415;Laerm;60995;52.154;4.498;2023-02-12T14:43:24;49.51;40.50;67.65;;
72415;Laerm;60995;52.154;4.498;2023-02-12T14:45:44;49.21;40.49;60.35;;
72415;Laerm;60995;52.154;4.498;2023-02-12T14:48:01;48.83;40.60;61.57;;
72415;Laerm;60995;52.154;4.498;2023-02-12T14:50:21;49.07;38.79;67.11;;
72415;Laerm;60995;52.154;4.498;2023-02-12T14:52:39;49.57;40.93;62.00;;
72415;Laerm;60995;52.154;4.498;2023-02-12T14:55:04;54.56;40.65;71.29;;
72415;Laerm;60995;52.154;4.498;2023-02-12T14:57:34;49.14;40.49;61.90;;
72415;Laerm;60995;52.154;4.498;2023-02-12T14:59:57;47.89;40.40;61.49;;
72415;Laerm;60995;52.154;4.498;2023-02-12T15:02:26;50.40;43.25;65.62;;
72415;Laerm;60995;52.154;4.498;2023-02-12T15:04:44;50.85;39.74;65.56;;
72415;Laerm;60995;52.154;4.498;2023-02-12T15:07:06;52.45;40.82;72.89;;
72415;Laerm;60995;52.154;4.498;2023-02-12T15:09:31;51.97;41.23;65.51;;
72415;Laerm;60995;52.154;4.498;2023-02-12T15:11:58;54.59;39.55;85.66;;